Time;durP1;ratioP1;P1;durP2;ratioP2;P2;SDS_P1;SDS_P2;PMS_P1;PMS_P2;Temp;Humidity;BMP_temperature;BMP_pressure;BME280_temperature;BME280_humidity;BME280_pressure;Samples;Min_cycle;Max_cycle;Signal;HPM_P1;HPM_P2
2020/12/10 00:01:43;;;;;;;92.77;30.83;;;1.30;99.90;;;;;;4995109;28;20174;-78
2020/12/10 00:04:09;;;;;;;110.23;32.50;;;1.40;99.90;;;;;;4978711;28;20747;-77
2020/12/10 00:06:34;;;;;;;97.50;32.83;;;1.30;99.90;;;;;;4994925;28;20304;-77
2020/12/10 00:09:00;;;;;;;99.23;32.17;;;1.30;99.90;;;;;;4997805;28;20205;-77
2020/12/10 00:11:25;;;;;;;84.37;29.63;;;1.30;99.90;;;;;;4999227;28;20171;-77
2020/12/10 00:13:51;;;;;;;68.17;28.80;;;1.30;99.90;;;;;;4999400;28;20186;-77
2020/12/10 00:16:16;;;;;;;71.57;28.60;;;1.40;99.90;;;;;;4998913;28;20187;-77
2020/12/10 00:18:42;;;;;;;57.33;26.20;;;1.30;99.90;;;;;;4999442;28;20190;-77
2020/12/10 00:21:08;;;;;;;63.27;26.27;;;1.30;99.90;;;;;;4999104;28;20624;-78
2020/12/10 00:23:33;;;;;;;67.80;26.70;;;1.30;99.90;;;;;;4998991;28;20693;-77
2020/12/10 00:25:59;;;;;;;65.73;26.73;;;1.30;99.90;;;;;;4998859;28;20218;-77
2020/12/10 00:28:25;;;;;;;68.10;26.37;;;1.30;99.90;;;;;;4998833;28;20211;-77
2020/12/10 00:30:50;;;;;;;66.27;26.63;;;1.30;99.90;;;;;;4998802;28;20720;-77
2020/12/10 00:33:16;;;;;;;64.00;26.37;;;1.30;99.90;;;;;;4998881;28;20747;-77
2020/12/10 00:35:42;;;;;;;55.67;26.00;;;1.20;99.90;;;;;;4998768;28;20227;-77
2020/12/10 00:38:07;;;;;;;77.27;27.53;;;1.20;99.90;;;;;;4982026;28;20217;-77
2020/12/10 00:40:33;;;;;;;62.60;24.63;;;1.10;99.90;;;;;;4998542;28;20639;-77
2020/12/10 00:42:58;;;;;;;66.63;26.17;;;1.10;99.90;;;;;;4998471;28;20662;-77
2020/12/10 00:45:24;;;;;;;62.10;26.43;;;1.00;99.90;;;;;;4998307;28;20245;-77
2020/12/10 00:47:50;;;;;;;62.53;26.10;;;1.00;99.90;;;;;;4998430;28;20217;-78
2020/12/10 00:50:16;;;;;;;55.40;26.03;;;1.10;99.90;;;;;;4998263;28;20180;-78
2020/12/10 00:52:41;;;;;;;64.90;27.43;;;1.10;99.90;;;;;;4997995;28;20182;-78
2020/12/10 00:55:07;;;;;;;56.67;26.73;;;1.10;99.90;;;;;;4981664;28;20282;-78
2020/12/10 00:57:32;;;;;;;54.63;26.30;;;1.10;99.90;;;;;;4997899;28;20232;-78
2020/12/10 00:59:58;;;;;;;56.30;25.43;;;1.10;99.90;;;;;;4998037;28;20183;-78
2020/12/10 01:02:23;;;;;;;62.13;26.40;;;1.10;99.90;;;;;;4998062;28;20184;-78
2020/12/10 01:04:49;;;;;;;60.17;27.43;;;1.10;99.90;;;;;;4997929;28;20203;-78
2020/12/10 01:07:14;;;;;;;55.90;27.10;;;1.10;99.90;;;;;;4997547;28;20215;-78
2020/12/10 01:09:40;;;;;;;56.40;26.27;;;1.00;99.90;;;;;;4981435;28;20272;-78
2020/12/10 01:12:06;;;;;;;56.77;26.63;;;1.00;99.90;;;;;;4997650;28;20187;-78
2020/12/10 01:14:32;;;;;;;72.00;28.87;;;1.20;99.90;;;;;;4981100;28;20289;-78
2020/12/10 01:16:57;;;;;;;85.73;28.83;;;1.10;99.90;;;;;;4997569;28;20183;-77
2020/12/10 01:19:23;;;;;;;72.43;29.20;;;1.10;99.90;;;;;;4997599;28;20215;-78
2020/12/10 01:21:48;;;;;;;83.40;28.63;;;1.10;99.90;;;;;;4981836;28;20651;-78
2020/12/10 01:24:14;;;;;;;75.37;28.37;;;1.00;99.90;;;;;;4981583;28;20200;-78
2020/12/10 01:26:42;;;;;;;83.53;29.03;;;1.10;99.90;;;;;;4997249;28;20211;-78
2020/12/10 01:29:07;;;;;;;75.07;28.90;;;1.00;99.90;;;;;;4997512;28;20183;-77
2020/12/10 01:31:33;;;;;;;79.97;28.63;;;1.10;99.90;;;;;;4997308;28;20178;-78
2020/12/10 01:33:58;;;;;;;60.13;27.17;;;1.10;99.90;;;;;;4997324;28;20190;-78
2020/12/10 01:36:27;;;;;;;55.67;25.90;;;1.10;99.90;;;;;;5013418;28;20252;-78
2020/12/10 01:38:53;;;;;;;64.00;25.87;;;1.00;99.90;;;;;;4997194;28;20186;-78
2020/12/10 01:41:19;;;;;;;54.00;26.07;;;1.00;99.90;;;;;;4997131;28;20197;-78
2020/12/10 01:43:44;;;;;;;53.07;25.50;;;1.10;99.90;;;;;;4997028;28;20196;-78
2020/12/10 01:46:10;;;;;;;47.47;25.90;;;1.10;99.90;;;;;;4996823;28;20226;-78
2020/12/10 01:48:35;;;;;;;52.93;25.63;;;1.00;99.90;;;;;;4997084;28;20171;-78
2020/12/10 01:51:01;;;;;;;52.83;25.63;;;0.90;99.90;;;;;;4996995;28;20233;-78
2020/12/10 01:53:27;;;;;;;49.03;25.23;;;0.90;99.90;;;;;;4997023;28;20178;-78
2020/12/10 01:55:52;;;;;;;49.37;25.47;;;0.90;99.90;;;;;;4996756;28;20230;-78
2020/12/10 01:58:18;;;;;;;53.10;25.87;;;0.90;99.90;;;;;;4996950;28;20186;-78
2020/12/10 02:00:44;;;;;;;52.33;25.50;;;0.90;99.90;;;;;;4996810;28;20175;-78
2020/12/10 02:03:09;;;;;;;50.57;25.00;;;0.90;99.90;;;;;;4996944;28;20201;-78
2020/12/10 02:05:47;;;;;;;48.37;25.43;;;0.90;99.90;;;;;;4996609;28;20249;-78
2020/12/10 02:08:13;;;;;;;49.60;25.60;;;0.90;99.90;;;;;;4997131;28;20209;-77
2020/12/10 02:10:39;;;;;;;47.20;24.40;;;1.00;99.90;;;;;;4996597;28;20179;-78
2020/12/10 02:13:05;;;;;;;48.47;26.30;;;0.90;99.90;;;;;;4980553;28;20186;-78
2020/12/10 02:15:33;;;;;;;50.30;25.23;;;0.90;99.90;;;;;;4996746;28;20195;-78
2020/12/10 02:18:05;;;;;;;50.03;25.47;;;0.90;99.90;;;;;;4997053;28;20183;-78
2020/12/10 02:20:33;;;;;;;49.07;25.53;;;0.80;99.90;;;;;;4997058;28;20563;-78
2020/12/10 02:23:05;;;;;;;52.27;26.60;;;0.80;99.90;;;;;;4996685;28;20178;-78
2020/12/10 02:25:31;;;;;;;44.93;23.43;;;0.80;99.90;;;;;;4996197;28;20204;-78
2020/12/10 02:27:59;;;;;;;49.60;25.13;;;0.80;99.90;;;;;;4996041;28;20217;-78
2020/12/10 02:30:24;;;;;;;52.57;25.60;;;0.90;99.90;;;;;;4995944;28;20560;-77
2020/12/10 02:32:55;;;;;;;50.00;26.10;;;1.00;99.90;;;;;;4996253;28;20190;-78
2020/12/10 02:35:21;;;;;;;50.20;25.40;;;1.00;99.90;;;;;;4980031;28;20621;-78
2020/12/10 02:37:47;;;;;;;49.97;25.53;;;0.90;99.90;;;;;;4988778;28;20222;-79
2020/12/10 02:40:12;;;;;;;51.27;25.40;;;1.00;99.90;;;;;;5002452;28;20210;-78
2020/12/10 02:42:38;;;;;;;48.90;25.57;;;1.10;99.90;;;;;;4978860;28;20233;-78
2020/12/10 02:45:03;;;;;;;49.73;25.87;;;1.10;99.90;;;;;;4995758;28;20262;-78
2020/12/10 02:47:29;;;;;;;48.50;24.10;;;1.00;99.90;;;;;;4995787;28;20268;-77
2020/12/10 02:49:54;;;;;;;47.10;23.17;;;1.00;99.90;;;;;;4995895;28;20655;-78
2020/12/10 02:52:20;;;;;;;48.63;24.93;;;1.00;99.90;;;;;;4995803;28;20593;-78
2020/12/10 02:54:45;;;;;;;44.20;23.47;;;0.90;99.90;;;;;;4995658;28;20648;-78
2020/12/10 02:57:11;;;;;;;45.37;23.03;;;0.90;99.90;;;;;;4995608;28;20655;-78
2020/12/10 02:59:36;;;;;;;43.00;23.17;;;0.90;99.90;;;;;;4995647;28;20229;-78
2020/12/10 03:02:02;;;;;;;43.17;22.57;;;0.80;99.90;;;;;;4995856;28;20630;-78
2020/12/10 03:04:27;;;;;;;42.40;22.33;;;0.80;99.90;;;;;;4995753;28;20745;-78
2020/12/10 03:06:54;;;;;;;44.33;22.53;;;0.90;99.90;;;;;;4995285;28;20200;-78
2020/12/10 03:09:19;;;;;;;46.33;24.43;;;0.90;99.90;;;;;;4995891;28;20652;-78
2020/12/10 03:11:45;;;;;;;44.03;23.40;;;0.90;99.90;;;;;;5011694;28;20175;-78
2020/12/10 03:14:10;;;;;;;46.70;23.20;;;0.80;99.90;;;;;;4995365;28;20326;-78
2020/12/10 03:16:36;;;;;;;44.63;23.33;;;0.90;99.90;;;;;;5011455;28;20210;-78
2020/12/10 03:19:01;;;;;;;45.77;23.37;;;0.80;99.90;;;;;;4995341;28;20190;-78
2020/12/10 03:21:27;;;;;;;47.57;24.80;;;0.80;99.90;;;;;;4995304;28;20179;-78
2020/12/10 03:23:52;;;;;;;46.57;24.67;;;0.70;99.90;;;;;;4995153;28;20183;-78
2020/12/10 03:26:18;;;;;;;44.90;24.37;;;0.70;99.90;;;;;;4994940;28;20233;-78
2020/12/10 03:28:43;;;;;;;41.60;23.13;;;0.80;99.90;;;;;;4995321;28;20172;-78
2020/12/10 03:31:09;;;;;;;44.27;23.60;;;0.70;99.90;;;;;;4995153;28;20313;-78
2020/12/10 03:33:34;;;;;;;44.20;23.23;;;0.70;99.90;;;;;;4995076;28;20182;-78
2020/12/10 03:36:00;;;;;;;43.00;24.07;;;0.70;99.90;;;;;;4994684;28;20199;-77
2020/12/10 03:38:25;;;;;;;44.57;21.57;;;0.80;99.90;;;;;;5011404;28;20547;-78
2020/12/10 03:40:51;;;;;;;45.37;23.90;;;0.80;99.90;;;;;;4995039;28;20644;-78
2020/12/10 03:43:16;;;;;;;46.00;23.67;;;0.80;99.90;;;;;;5011331;28;20533;-78
2020/12/10 03:45:42;;;;;;;42.63;23.70;;;0.80;99.90;;;;;;4994431;28;20675;-79
2020/12/10 03:48:07;;;;;;;42.93;22.87;;;0.80;99.90;;;;;;4994144;28;20176;-78
2020/12/10 03:50:33;;;;;;;43.47;23.40;;;0.80;99.90;;;;;;4993967;28;20233;-78
2020/12/10 03:52:58;;;;;;;44.03;22.37;;;0.80;99.90;;;;;;4994205;28;20540;-78
2020/12/10 03:55:24;;;;;;;41.63;21.90;;;0.80;99.90;;;;;;4994128;28;20691;-78
2020/12/10 03:57:49;;;;;;;40.13;23.00;;;1.00;99.90;;;;;;4993132;28;20638;-78
2020/12/10 04:00:15;;;;;;;41.17;21.27;;;0.90;99.90;;;;;;4994164;28;20176;-78
2020/12/10 04:02:41;;;;;;;42.47;22.30;;;0.80;99.90;;;;;;4994243;28;20557;-78
2020/12/10 04:05:06;;;;;;;40.67;22.83;;;0.80;99.90;;;;;;4993682;28;20203;-79
2020/12/10 04:07:32;;;;;;;42.97;23.13;;;0.80;99.90;;;;;;4993588;28;20215;-77
2020/12/10 04:09:57;;;;;;;44.33;23.00;;;0.80;99.90;;;;;;4993750;28;20270;-78
2020/12/10 04:12:23;;;;;;;42.17;22.17;;;0.70;99.90;;;;;;5010239;28;20275;-78
2020/12/10 04:14:48;;;;;;;43.30;23.47;;;0.80;99.90;;;;;;4993793;28;20608;-78
2020/12/10 04:17:14;;;;;;;39.63;21.90;;;0.70;99.90;;;;;;4993546;28;20179;-78
2020/12/10 04:19:39;;;;;;;38.60;21.37;;;0.70;99.90;;;;;;4993697;28;20677;-78
2020/12/10 04:22:05;;;;;;;41.93;22.80;;;0.60;99.90;;;;;;4994098;28;20636;-78
2020/12/10 04:24:30;;;;;;;42.23;22.37;;;0.60;99.90;;;;;;4993857;28;20552;-78
2020/12/10 04:26:56;;;;;;;44.70;23.80;;;0.70;99.90;;;;;;4993399;28;20563;-78
2020/12/10 04:29:21;;;;;;;46.70;23.17;;;0.70;99.90;;;;;;4993793;28;20665;-78
2020/12/10 04:31:47;;;;;;;47.33;23.33;;;0.70;99.90;;;;;;4993691;28;20183;-78
2020/12/10 04:34:12;;;;;;;45.90;23.30;;;0.70;99.90;;;;;;4993458;28;20651;-78
2020/12/10 04:36:38;;;;;;;45.20;23.57;;;0.60;99.90;;;;;;4993581;28;20646;-78
2020/12/10 04:39:04;;;;;;;46.93;24.47;;;0.70;99.90;;;;;;4993808;28;20179;-78
2020/12/10 04:41:32;;;;;;;48.23;22.60;;;0.70;99.90;;;;;;4993499;28;20241;-78
2020/12/10 04:43:57;;;;;;;52.33;23.80;;;0.60;99.90;;;;;;4994301;28;20174;-78
2020/12/10 04:46:24;;;;;;;47.88;24.58;;;0.50;99.90;;;;;;4965905;28;807735;-78
2020/12/10 04:48:49;;;;;;;51.70;24.80;;;0.50;99.90;;;;;;4994381;28;20172;-79
2020/12/10 04:51:15;;;;;;;54.00;25.90;;;0.60;99.90;;;;;;4994317;28;20242;-78
2020/12/10 04:53:40;;;;;;;57.17;26.50;;;0.50;99.90;;;;;;4994671;28;20180;-78
2020/12/10 04:56:07;;;;;;;52.60;25.47;;;0.50;99.90;;;;;;4997761;28;20583;-78
2020/12/10 04:58:33;;;;;;;50.83;24.47;;;0.50;99.90;;;;;;4998042;28;20179;-78
2020/12/10 05:01:00;;;;;;;73.87;25.07;;;0.50;99.90;;;;;;4997901;28;20275;-78
2020/12/10 05:03:26;;;;;;;60.57;23.43;;;0.50;99.90;;;;;;4998100;28;20598;-78
2020/12/10 05:05:52;;;;;;;100.60;25.00;;;0.50;99.90;;;;;;4997678;28;20245;-78
2020/12/10 05:08:30;;;;;;;101.17;26.03;;;0.50;99.90;;;;;;4997689;28;20175;-78
2020/12/10 05:10:55;;;;;;;75.23;25.20;;;0.40;99.90;;;;;;4997776;28;20175;-78
2020/12/10 05:13:21;;;;;;;148.10;26.40;;;0.50;99.90;;;;;;4997748;28;20176;-78
2020/12/10 05:15:46;;;;;;;131.97;26.80;;;0.50;99.90;;;;;;4997278;28;20313;-78
2020/12/10 05:18:13;;;;;;;101.17;23.90;;;0.50;99.90;;;;;;4997546;28;20282;-78
2020/12/10 05:20:45;;;;;;;118.43;24.53;;;0.40;99.90;;;;;;4997566;28;20832;-78
2020/12/10 05:23:12;;;;;;;115.60;24.73;;;0.50;99.90;;;;;;4998194;28;20647;-78
2020/12/10 05:25:50;;;;;;;67.00;24.40;;;0.40;99.90;;;;;;4997448;28;20619;-78
2020/12/10 05:28:17;;;;;;;76.43;22.77;;;0.30;99.90;;;;;;4997063;28;20187;-78
2020/12/10 05:30:43;;;;;;;76.53;22.37;;;0.40;99.90;;;;;;4997149;28;20234;-78
2020/12/10 05:33:10;;;;;;;72.13;22.47;;;0.50;99.90;;;;;;4997368;28;20255;-78
2020/12/10 05:35:36;;;;;;;91.70;24.30;;;0.60;99.90;;;;;;4997516;28;20195;-78
2020/12/10 05:38:07;;;;;;;110.00;25.70;;;0.50;99.90;;;;;;4997023;28;20654;-78
2020/12/10 05:40:32;;;;;;;79.57;24.43;;;0.40;99.90;;;;;;5013368;28;20553;-79
2020/12/10 05:42:58;;;;;;;138.87;27.43;;;0.40;99.90;;;;;;4997016;28;20240;-78
2020/12/10 05:45:23;;;;;;;69.90;23.30;;;0.40;99.90;;;;;;4996554;28;20812;-78
2020/12/10 05:47:59;;;;;;;81.97;24.37;;;0.30;99.90;;;;;;4996777;28;20727;-78
2020/12/10 05:50:26;;;;;;;107.47;26.83;;;0.30;99.90;;;;;;4997821;28;20195;-78
2020/12/10 05:53:05;;;;;;;88.23;24.60;;;0.30;99.90;;;;;;4981468;28;20221;-79
2020/12/10 05:55:31;;;;;;;101.47;25.57;;;0.30;99.90;;;;;;4997035;28;20199;-78
2020/12/10 05:57:57;;;;;;;84.60;26.50;;;0.30;99.90;;;;;;4996861;28;20191;-79
2020/12/10 06:00:23;;;;;;;96.20;25.80;;;0.30;99.90;;;;;;4996703;28;20259;-78
2020/12/10 06:02:49;;;;;;;85.20;24.97;;;0.40;99.90;;;;;;4996947;28;20178;-78
2020/12/10 06:05:15;;;;;;;87.23;25.83;;;0.30;99.90;;;;;;4996184;28;20650;-78
2020/12/10 06:07:59;;;;;;;91.43;26.30;;;0.20;99.90;;;;;;4996461;28;20261;-78
2020/12/10 06:10:25;;;;;;;111.90;26.70;;;0.20;99.90;;;;;;4997242;28;20223;-78
2020/12/10 06:12:54;;;;;;;79.57;24.80;;;0.10;99.90;;;;;;4996579;28;20223;-78
2020/12/10 06:15:24;;;;;;;79.23;25.40;;;0.20;99.90;;;;;;4981288;28;20658;-78
2020/12/10 06:18:10;;;;;;;79.87;25.10;;;0.20;99.90;;;;;;4996839;28;20566;-78
2020/12/10 06:20:45;;;;;;;83.27;25.03;;;0.20;99.90;;;;;;5012689;28;20182;-77
2020/12/10 06:23:23;;;;;;;84.60;25.87;;;0.10;99.90;;;;;;5013040;28;20181;-77
2020/12/10 06:25:49;;;;;;;87.53;25.33;;;0.10;99.90;;;;;;5012587;28;20756;-79
2020/12/10 06:28:18;;;;;;;90.57;28.23;;;0.10;99.90;;;;;;5012706;28;20185;-78
2020/12/10 06:31:06;;;;;;;109.47;28.03;;;0.10;99.90;;;;;;5012802;28;20578;-78
2020/12/10 06:33:45;;;;;;;90.97;27.43;;;0.10;99.90;;;;;;5012650;28;20266;-77
2020/12/10 06:36:20;;;;;;;104.50;29.67;;;0.10;99.90;;;;;;4994554;28;20207;-78
2020/12/10 06:38:46;;;;;;;119.70;27.77;;;0.20;99.90;;;;;;4991174;28;20190;-77
2020/12/10 06:41:11;;;;;;;90.03;27.13;;;0.30;99.90;;;;;;5012498;28;20206;-78
2020/12/10 06:43:37;;;;;;;110.77;27.17;;;0.20;99.90;;;;;;5012577;28;20178;-78
2020/12/10 06:46:03;;;;;;;92.30;27.33;;;0.30;99.90;;;;;;5012205;28;20254;-78
2020/12/10 06:48:38;;;;;;;82.37;26.97;;;0.30;99.90;;;;;;5009569;28;20183;-78
2020/12/10 06:51:19;;;;;;;84.33;26.50;;;0.20;99.90;;;;;;4992865;28;20179;-78
2020/12/10 06:54:07;;;;;;;121.20;28.57;;;0.20;99.90;;;;;;4992948;28;20219;-77
2020/12/10 06:56:57;;;;;;;105.70;27.13;;;0.20;99.90;;;;;;5005636;28;20184;-76
2020/12/10 06:59:36;;;;;;;123.40;27.13;;;0.20;99.90;;;;;;4993260;28;20254;-76
2020/12/10 07:02:12;;;;;;;101.77;27.63;;;0.20;99.90;;;;;;5009122;28;20172;-77
2020/12/10 07:04:49;;;;;;;100.47;27.97;;;0.10;99.90;;;;;;5008102;28;20190;-77
2020/12/10 07:07:15;;;;;;;117.60;28.17;;;0.10;99.90;;;;;;5007269;28;20230;-76
2020/12/10 07:09:55;;;;;;;154.00;29.87;;;0.10;99.90;;;;;;5025892;28;20176;-77
2020/12/10 07:12:27;;;;;;;117.87;27.97;;;0.10;99.90;;;;;;4992684;28;20180;-76
2020/12/10 07:15:11;;;;;;;70.53;26.27;;;0.20;99.90;;;;;;5025731;28;20199;-77
2020/12/10 07:17:37;;;;;;;116.93;28.20;;;0.10;99.90;;;;;;5010388;28;20180;-77
2020/12/10 07:20:03;;;;;;;136.10;29.70;;;0.10;99.90;;;;;;4996398;28;20735;-76
2020/12/10 07:22:28;;;;;;;97.23;28.50;;;0.10;99.90;;;;;;4992630;28;20193;-77
2020/12/10 07:24:54;;;;;;;99.00;26.80;;;0.10;99.90;;;;;;4993138;28;20706;-79
2020/12/10 07:27:19;;;;;;;107.60;30.90;;;0.20;99.90;;;;;;5025488;28;20222;-77
2020/12/10 07:29:51;;;;;;;121.20;30.60;;;0.10;99.90;;;;;;5008497;28;20263;-76
2020/12/10 07:32:17;;;;;;;170.90;32.77;;;0.20;99.90;;;;;;5009068;28;20200;-78
2020/12/10 07:34:43;;;;;;;156.27;33.30;;;0.20;99.90;;;;;;4993209;28;20219;-79
2020/12/10 07:37:11;;;;;;;123.50;31.80;;;0.20;99.90;;;;;;4983958;28;20618;-79
2020/12/10 07:39:37;;;;;;;158.90;33.90;;;0.30;99.90;;;;;;4992102;28;20176;-79
2020/12/10 07:42:02;;;;;;;154.67;35.27;;;0.30;99.90;;;;;;5008821;28;20183;-79
2020/12/10 07:44:32;;;;;;;147.73;30.03;;;0.30;99.90;;;;;;4991940;28;20211;-79
2020/12/10 07:46:59;;;;;;;97.87;29.43;;;0.30;99.90;;;;;;4991614;28;20227;-79
2020/12/10 07:49:31;;;;;;;163.77;30.30;;;0.30;99.90;;;;;;4992927;28;20179;-81
2020/12/10 07:52:06;;;;;;;151.83;30.53;;;0.30;99.90;;;;;;4991226;28;20183;-80
2020/12/10 07:54:42;;;;;;;167.30;33.53;;;0.30;99.90;;;;;;5003682;28;20676;-81
2020/12/10 07:57:23;;;;;;;128.67;29.77;;;0.20;99.90;;;;;;4992192;28;20183;-80
2020/12/10 07:59:52;;;;;;;109.43;28.37;;;0.30;99.90;;;;;;5008530;28;20215;-80
2020/12/10 08:02:18;;;;;;;155.50;30.30;;;0.30;99.90;;;;;;5013368;28;20187;-81
2020/12/10 08:04:43;;;;;;;107.50;29.70;;;0.30;99.90;;;;;;5010891;28;20204;-81
2020/12/10 08:07:12;;;;;;;105.63;28.63;;;0.30;99.90;;;;;;5008268;28;20226;-80
2020/12/10 08:09:38;;;;;;;106.77;28.80;;;0.30;99.90;;;;;;4998174;28;20180;-79
2020/12/10 08:12:03;;;;;;;118.87;33.27;;;0.50;99.90;;;;;;4982123;28;20185;-80
2020/12/10 08:14:29;;;;;;;137.77;29.63;;;0.50;99.90;;;;;;4991976;28;20575;-78
2020/12/10 08:16:55;;;;;;;146.97;31.43;;;0.40;99.90;;;;;;5008348;28;20182;-78
2020/12/10 08:19:29;;;;;;;126.03;30.37;;;0.40;99.90;;;;;;5008877;28;20179;-79
2020/12/10 08:21:55;;;;;;;109.33;30.80;;;0.40;99.90;;;;;;4994999;28;20585;-81
2020/12/10 08:24:36;;;;;;;107.87;29.70;;;0.50;99.90;;;;;;5008359;28;20258;-80
2020/12/10 08:27:02;;;;;;;97.47;29.10;;;0.50;99.90;;;;;;5008194;28;20195;-79
2020/12/10 08:29:28;;;;;;;129.27;30.03;;;0.50;99.90;;;;;;4995224;28;20190;-82
2020/12/10 08:32:11;;;;;;;120.03;29.73;;;0.50;99.90;;;;;;4998260;28;20178;-80
2020/12/10 08:34:36;;;;;;;181.00;33.30;;;0.50;99.90;;;;;;5011831;28;20244;-80
2020/12/10 08:37:06;;;;;;;110.07;28.40;;;0.40;99.90;;;;;;4996612;28;20187;-76
2020/12/10 08:39:33;;;;;;;118.67;28.00;;;0.40;99.90;;;;;;4999686;28;20242;-77
2020/12/10 08:41:59;;;;;;;127.73;27.77;;;0.50;99.90;;;;;;5000912;28;20241;-80
2020/12/10 08:44:24;;;;;;;109.37;25.87;;;0.50;99.90;;;;;;4996445;28;20682;-81
2020/12/10 08:46:59;;;;;;;71.97;22.80;;;0.50;99.90;;;;;;4995469;28;20627;-80
2020/12/10 08:49:25;;;;;;;90.67;24.93;;;0.40;99.90;;;;;;4994935;28;20213;-80
2020/12/10 08:51:50;;;;;;;106.97;26.23;;;0.40;99.90;;;;;;5011528;28;20222;-80
2020/12/10 08:54:16;;;;;;;94.43;24.13;;;0.40;99.90;;;;;;4995807;28;20245;-80
2020/12/10 08:56:42;;;;;;;106.37;25.47;;;0.40;99.90;;;;;;5003723;28;20209;-80
2020/12/10 08:59:08;;;;;;;118.50;27.47;;;0.40;99.90;;;;;;5014221;28;20183;-80
2020/12/10 09:01:34;;;;;;;130.27;36.57;;;0.40;99.90;;;;;;4996407;28;20184;-80
2020/12/10 09:03:59;;;;;;;110.30;29.10;;;0.40;99.90;;;;;;4996340;28;20219;-80
2020/12/10 09:06:35;;;;;;;125.50;29.00;;;0.50;99.90;;;;;;4996438;28;20211;-80
2020/12/10 09:09:01;;;;;;;84.27;25.27;;;0.60;99.90;;;;;;4996136;28;20187;-80
2020/12/10 09:11:27;;;;;;;135.37;27.93;;;0.70;99.90;;;;;;4996067;28;20207;-80
2020/12/10 09:13:52;;;;;;;145.03;29.53;;;0.80;99.90;;;;;;4998899;28;20180;-80
2020/12/10 09:16:18;;;;;;;102.43;26.43;;;0.80;99.90;;;;;;4999398;28;20214;-77
2020/12/10 09:18:43;;;;;;;125.97;27.33;;;0.80;99.90;;;;;;4988044;28;20177;-77
2020/12/10 09:21:09;;;;;;;92.43;27.00;;;0.80;99.90;;;;;;4990352;28;20176;-78
2020/12/10 09:23:43;;;;;;;104.80;25.83;;;0.90;99.90;;;;;;4999353;28;20180;-77
2020/12/10 09:26:09;;;;;;;137.10;28.23;;;0.80;99.90;;;;;;4980895;28;20214;-78
2020/12/10 09:28:34;;;;;;;78.77;26.23;;;0.80;99.90;;;;;;4980300;28;20176;-77
2020/12/10 09:31:00;;;;;;;66.73;26.73;;;1.00;99.90;;;;;;4980006;28;20687;-77
2020/12/10 09:33:25;;;;;;;77.10;25.47;;;1.10;99.90;;;;;;4980319;28;20180;-78
2020/12/10 09:35:51;;;;;;;69.13;26.63;;;1.20;99.90;;;;;;4980255;28;20206;-78
2020/12/10 09:38:16;;;;;;;78.13;26.03;;;1.10;99.90;;;;;;4979356;28;20192;-77
2020/12/10 09:40:42;;;;;;;85.53;28.17;;;1.10;99.90;;;;;;4979458;28;20678;-77
2020/12/10 09:43:07;;;;;;;68.03;28.33;;;1.00;99.90;;;;;;4979317;28;20259;-77
2020/12/10 09:45:33;;;;;;;84.27;27.67;;;1.00;99.90;;;;;;5003946;28;20218;-77
2020/12/10 09:47:59;;;;;;;66.77;26.60;;;1.00;99.90;;;;;;4995780;28;20242;-77
2020/12/10 09:50:32;;;;;;;90.53;28.47;;;1.00;99.90;;;;;;5014713;28;20646;-77
2020/12/10 09:53:06;;;;;;;104.67;26.70;;;1.00;99.90;;;;;;4999242;28;20183;-77
2020/12/10 09:55:45;;;;;;;67.07;25.67;;;1.10;99.90;;;;;;4995752;28;20196;-77
2020/12/10 09:58:11;;;;;;;86.33;27.07;;;1.10;99.90;;;;;;4994993;28;20760;-77
2020/12/10 10:00:37;;;;;;;76.60;26.40;;;1.20;99.90;;;;;;4998844;28;20266;-78
2020/12/10 10:03:06;;;;;;;73.30;27.47;;;1.20;99.90;;;;;;4979989;28;20655;-77
2020/12/10 10:05:32;;;;;;;90.07;27.47;;;1.30;99.90;;;;;;4980119;28;20204;-78
2020/12/10 10:07:58;;;;;;;76.43;26.13;;;1.40;99.90;;;;;;4979380;28;20727;-78
2020/12/10 10:10:23;;;;;;;87.43;27.70;;;1.40;99.90;;;;;;4979771;28;20172;-78
2020/12/10 10:12:49;;;;;;;72.60;26.30;;;1.30;99.90;;;;;;4980148;28;20203;-77
2020/12/10 10:15:16;;;;;;;97.83;28.70;;;1.30;99.90;;;;;;4980847;28;20205;-78
2020/12/10 10:17:42;;;;;;;75.43;26.47;;;1.40;99.90;;;;;;4988445;28;20242;-78
2020/12/10 10:20:07;;;;;;;83.60;27.40;;;1.30;99.90;;;;;;5015439;28;20187;-77
2020/12/10 10:22:38;;;;;;;72.47;26.53;;;1.40;99.90;;;;;;5014236;28;20188;-78
2020/12/10 10:25:03;;;;;;;69.17;26.40;;;1.50;99.90;;;;;;5013775;28;20269;-79
2020/12/10 10:27:29;;;;;;;63.33;27.27;;;1.60;99.90;;;;;;5009376;28;20199;-76
2020/12/10 10:29:54;;;;;;;62.13;24.70;;;1.60;99.90;;;;;;4996077;28;20187;-77
2020/12/10 10:32:20;;;;;;;59.77;26.50;;;1.70;99.90;;;;;;5030188;28;20536;-77
2020/12/10 10:34:45;;;;;;;60.80;25.50;;;1.70;99.90;;;;;;5030075;28;20565;-78
2020/12/10 10:37:11;;;;;;;63.00;27.20;;;1.70;99.90;;;;;;5012395;28;20179;-77
2020/12/10 10:39:36;;;;;;;57.63;26.27;;;1.80;99.90;;;;;;5013565;28;20196;-78
2020/12/10 10:42:02;;;;;;;56.73;25.23;;;1.80;99.90;;;;;;5030018;28;20184;-78
2020/12/10 10:44:27;;;;;;;55.80;25.80;;;1.90;99.90;;;;;;5013678;28;20741;-77
2020/12/10 10:46:53;;;;;;;53.80;25.53;;;1.90;99.90;;;;;;5013122;28;20207;-77
2020/12/10 10:49:19;;;;;;;59.03;27.23;;;2.10;99.90;;;;;;4996765;28;20179;-77
2020/12/10 10:51:47;;;;;;;58.97;26.03;;;2.00;99.90;;;;;;5012678;28;20590;-77
2020/12/10 10:54:13;;;;;;;53.53;24.73;;;2.10;99.90;;;;;;5013439;28;20214;-77
2020/12/10 10:56:38;;;;;;;53.93;25.87;;;2.20;99.90;;;;;;5013309;28;20176;-77
2020/12/10 10:59:04;;;;;;;54.43;26.77;;;2.20;99.90;;;;;;5013217;28;20176;-77
2020/12/10 11:01:29;;;;;;;51.67;25.07;;;2.30;99.90;;;;;;5013422;28;20560;-77
2020/12/10 11:03:55;;;;;;;58.00;26.50;;;2.20;99.90;;;;;;5013092;28;20202;-77
2020/12/10 11:06:21;;;;;;;56.90;26.43;;;2.30;99.90;;;;;;5012689;28;20227;-77
2020/12/10 11:08:46;;;;;;;56.20;25.47;;;2.30;99.90;;;;;;4996742;28;20234;-77
2020/12/10 11:11:16;;;;;;;54.20;25.63;;;2.30;99.90;;;;;;5013089;28;20591;-77
2020/12/10 11:13:42;;;;;;;54.33;25.20;;;2.20;99.90;;;;;;5013228;28;20531;-78
2020/12/10 11:16:08;;;;;;;52.77;25.47;;;2.20;99.90;;;;;;4996042;28;20337;-77
2020/12/10 11:18:33;;;;;;;63.97;26.80;;;2.30;99.90;;;;;;5012964;28;20201;-77
2020/12/10 11:20:59;;;;;;;54.03;24.73;;;2.40;99.90;;;;;;5012761;28;20262;-77
2020/12/10 11:23:24;;;;;;;52.70;24.27;;;2.40;99.90;;;;;;5029246;28;20183;-77
2020/12/10 11:25:50;;;;;;;52.00;24.87;;;2.30;99.90;;;;;;5012913;28;20202;-77
2020/12/10 11:28:15;;;;;;;49.90;24.53;;;2.20;99.90;;;;;;5012296;28;20211;-77
2020/12/10 11:30:41;;;;;;;50.53;23.50;;;2.20;99.90;;;;;;5012299;28;20175;-80
2020/12/10 11:33:06;;;;;;;50.80;25.27;;;2.30;99.90;;;;;;5011852;28;20171;-79
2020/12/10 11:35:41;;;;;;;50.77;24.50;;;2.20;99.90;;;;;;5014603;28;20218;-82
2020/12/10 11:38:07;;;;;;;50.67;24.80;;;2.30;99.90;;;;;;5029832;28;20169;-79
2020/12/10 11:40:32;;;;;;;47.87;24.17;;;2.30;99.90;;;;;;5012396;28;20277;-77
2020/12/10 11:42:58;;;;;;;49.60;24.20;;;2.40;99.90;;;;;;5011951;28;20182;-79
2020/12/10 11:45:23;;;;;;;50.17;24.73;;;2.40;99.90;;;;;;5011777;28;20728;-79
2020/12/10 11:47:50;;;;;;;43.27;22.27;;;2.50;99.90;;;;;;5011692;28;20684;-78
2020/12/10 11:50:19;;;;;;;42.13;21.93;;;2.50;99.90;;;;;;4995314;28;20171;-79
2020/12/10 11:52:51;;;;;;;41.73;22.87;;;2.60;99.90;;;;;;4995450;28;20176;-79
2020/12/10 11:55:17;;;;;;;38.40;20.83;;;2.40;99.90;;;;;;5011798;28;20191;-80
2020/12/10 11:57:42;;;;;;;41.17;21.60;;;2.20;99.90;;;;;;5011677;28;20176;-79
2020/12/10 12:00:08;;;;;;;40.60;20.73;;;2.20;99.90;;;;;;5017086;28;20191;-79
2020/12/10 12:02:34;;;;;;;39.93;21.87;;;2.30;99.90;;;;;;5011935;28;20179;-79
2020/12/10 12:04:59;;;;;;;41.23;23.17;;;2.20;99.90;;;;;;4995418;28;20226;-79
2020/12/10 12:07:25;;;;;;;41.17;22.27;;;2.30;99.90;;;;;;4995209;28;20206;-79
2020/12/10 12:09:50;;;;;;;39.30;23.00;;;2.30;99.90;;;;;;4979483;28;20193;-78
2020/12/10 12:12:16;;;;;;;41.07;21.70;;;2.40;99.90;;;;;;4996508;28;20551;-77
2020/12/10 12:14:41;;;;;;;40.53;21.93;;;2.50;99.90;;;;;;4979270;28;20203;-79
2020/12/10 12:17:07;;;;;;;46.77;23.43;;;2.50;99.90;;;;;;4996214;28;20187;-78
2020/12/10 12:19:32;;;;;;;42.67;23.63;;;2.50;99.90;;;;;;4979500;28;20175;-77
2020/12/10 12:22:00;;;;;;;44.40;22.60;;;2.50;99.90;;;;;;4996489;28;20213;-78
2020/12/10 12:24:25;;;;;;;41.40;22.13;;;2.60;99.90;;;;;;4996367;28;20236;-78
2020/12/10 12:26:51;;;;;;;42.47;22.50;;;2.50;99.90;;;;;;4995971;28;20277;-79
2020/12/10 12:29:16;;;;;;;41.70;21.07;;;2.50;99.90;;;;;;4996142;28;20171;-77
2020/12/10 12:31:42;;;;;;;41.90;22.53;;;2.50;99.90;;;;;;4996215;28;20182;-77
2020/12/10 12:34:07;;;;;;;40.57;23.33;;;2.60;99.90;;;;;;4995148;28;20656;-77
2020/12/10 12:36:33;;;;;;;40.30;21.37;;;2.50;99.90;;;;;;4994556;28;20209;-77